Time,TemperatureF,DewpointF,PressureIn,WindDirection,WindDirectionDegrees,WindSpeedMPH,WindSpeedGustMPH,Humidity,HourlyPrecipIn,Conditions,Clouds,dailyrainin,SoftwareType,DateUTC
2013-12-01 00:02:00,18.5,6.9,30.26,WSW,245,7.6,7.6,60,0.00,,---,0.00,VWS V14.01,2013-12-01 07:02:00,
2013-12-01 00:08:00,18.3,6.4,30.26,WSW,238,6.3,8.1,59,0.00,,---,0.00,VWS V14.01,2013-12-01 07:08:00,
2013-12-01 00:14:00,18.1,6.2,30.26,WSW,239,5.4,5.8,59,0.00,,---,0.00,VWS V14.01,2013-12-01 07:14:00,
2013-12-01 00:19:00,17.8,5.9,30.26,WSW,238,5.4,5.8,59,0.00,,---,0.00,VWS V14.01,2013-12-01 07:19:00,
2013-12-01 00:25:00,17.6,6.1,30.26,SW,229,6.3,6.3,60,0.00,,---,0.00,VWS V14.01,2013-12-01 07:25:00,
2013-12-01 00:31:00,17.4,5.9,30.26,WSW,244,3.6,5.8,60,0.00,,---,0.00,VWS V14.01,2013-12-01 07:31:00,
2013-12-01 00:36:00,17.4,5.9,30.26,WSW,243,0.0,0.0,60,0.00,,---,0.00,VWS V14.01,2013-12-01 07:36:00,
2013-12-01 00:42:00,17.4,5.9,30.26,SW,236,5.4,5.4,60,0.00,,---,0.00,VWS V14.01,2013-12-01 07:42:00,
2013-12-01 00:47:00,17.4,6.3,30.26,WSW,241,2.2,3.6,61,0.00,,---,0.00,VWS V14.01,2013-12-01 07:47:00,
2013-12-01 00:53:00,17.4,6.3,30.26,SW,229,4.0,4.9,61,0.00,,---,0.00,VWS V14.01,2013-12-01 07:53:00,
2013-12-01 00:59:00,17.2,6.1,30.26,WSW,249,0.0,3.6,61,0.00,,---,0.00,VWS V14.01,2013-12-01 07:59:00,
2013-12-01 01:04:00,17.1,5.9,30.26,WSW,249,0.0,3.1,61,0.00,,---,0.00,VWS V14.01,2013-12-01 08:04:00,
2013-12-01 01:09:00,17.1,5.9,30.26,WSW,249,0.0,0.0,61,0.00,,---,0.00,VWS V14.01,2013-12-01 08:09:00,
2013-12-01 01:15:00,17.2,6.1,30.26,WSW,249,0.0,0.0,61,0.00,,---,0.00,VWS V14.01,2013-12-01 08:15:00,
2013-12-01 01:21:00,17.1,5.9,30.26,WSW,249,0.0,0.0,61,0.00,,---,0.00,VWS V14.01,2013-12-01 08:21:00,
2013-12-01 01:26:00,16.9,5.8,30.26,WSW,249,0.0,0.0,61,0.00,,---,0.00,VWS V14.01,2013-12-01 08:26:00,
2013-12-01 01:32:00,16.9,6.1,30.26,WSW,249,0.0,0.0,62,0.00,,---,0.00,VWS V14.01,2013-12-01 08:32:00,
2013-12-01 01:37:00,16.9,6.1,30.26,WSW,249,0.0,0.0,62,0.00,,---,0.00,VWS V14.01,2013-12-01 08:37:00,
2013-12-01 01:43:00,16.7,6.0,30.26,WSW,249,0.0,0.0,62,0.00,,---,0.00,VWS V14.01,2013-12-01 08:43:00,
2013-12-01 01:49:00,16.5,5.8,30.26,WSW,249,0.0,0.0,62,0.00,,---,0.00,VWS V14.01,2013-12-01 08:49:00,
2013-12-01 01:54:00,16.3,5.6,30.26,WSW,249,0.0,0.0,62,0.00,,---,0.00,VWS V14.01,2013-12-01 08:54:00,
2013-12-01 02:00:00,16.3,5.6,30.26,WSW,249,0.0,0.0,62,0.00,,---,0.00,VWS V14.01,2013-12-01 09:00:00,
2013-12-01 02:03:00,16.3,5.6,30.26,WSW,249,0.0,0.0,62,0.00,,---,0.00,VWS V14.01,2013-12-01 09:03:00,
2013-12-01 02:08:00,16.2,5.4,30.26,WSW,249,0.0,0.0,62,0.00,,---,0.00,VWS V14.01,2013-12-01 09:08:00,
2013-12-01 02:14:00,16.2,5.4,30.26,WSW,237,3.6,5.4,62,0.00,,---,0.00,VWS V14.01,2013-12-01 09:14:00,
2013-12-01 02:20:00,16.0,4.9,30.26,WSW,238,2.7,3.1,61,0.00,,---,0.00,VWS V14.01,2013-12-01 09:20:00,
2013-12-01 02:25:00,15.8,5.1,30.26,WSW,238,0.0,0.0,62,0.00,,---,0.00,VWS V14.01,2013-12-01 09:25:00,
2013-12-01 02:31:00,15.6,4.9,30.26,WSW,238,0.0,0.0,62,0.00,,---,0.00,VWS V14.01,2013-12-01 09:31:00,
2013-12-01 02:36:00,15.4,4.8,30.26,SW,236,0.0,0.0,62,0.00,,---,0.00,VWS V14.01,2013-12-01 09:36:00,
2013-12-01 02:42:00,15.3,4.6,30.26,WSW,241,3.6,5.4,62,0.00,,---,0.00,VWS V14.01,2013-12-01 09:42:00,
2013-12-01 02:48:00,15.1,4.4,30.26,WSW,240,0.0,0.0,62,0.00,,---,0.00,VWS V14.01,2013-12-01 09:48:00,
2013-12-01 02:53:00,14.9,4.2,30.26,SW,233,3.1,5.8,62,0.00,,---,0.00,VWS V14.01,2013-12-01 09:53:00,
2013-12-01 02:59:00,14.9,4.2,30.26,SW,229,0.0,4.0,62,0.00,,---,0.00,VWS V14.01,2013-12-01 09:59:00,
2013-12-01 03:04:00,14.9,4.2,30.26,SW,229,0.0,3.1,62,0.00,,---,0.00,VWS V14.01,2013-12-01 10:04:00,
2013-12-01 03:10:00,14.5,3.5,30.26,WSW,240,6.3,6.7,61,0.00,,---,0.00,VWS V14.01,2013-12-01 10:10:00,
2013-12-01 03:16:00,14.5,3.9,30.26,WSW,240,0.0,4.9,62,0.00,,---,0.00,VWS V14.01,2013-12-01 10:16:00,
2013-12-01 03:21:00,14.5,3.9,30.26,WSW,243,0.0,0.0,62,0.00,,---,0.00,VWS V14.01,2013-12-01 10:21:00,
2013-12-01 03:26:00,14.4,3.4,30.26,WSW,238,2.7,5.4,61,0.00,,---,0.00,VWS V14.01,2013-12-01 10:26:00,
2013-12-01 03:31:00,14.2,3.2,30.26,WSW,240,7.6,7.6,61,0.00,,---,0.00,VWS V14.01,2013-12-01 10:31:00,
2013-12-01 03:37:00,14.0,3.0,30.26,WSW,238,6.3,8.1,61,0.00,,---,0.00,VWS V14.01,2013-12-01 10:37:00,
2013-12-01 03:42:00,13.8,2.9,30.26,SW,236,4.0,6.3,61,0.00,,---,0.00,VWS V14.01,2013-12-01 10:42:00,
2013-12-01 03:48:00,13.8,2.9,30.23,WSW,237,5.8,7.6,61,0.00,,---,0.00,VWS V14.01,2013-12-01 10:48:00,
2013-12-01 03:53:00,13.8,2.9,30.23,SW,234,2.7,3.1,61,0.00,,---,0.00,VWS V14.01,2013-12-01 10:53:00,
2013-12-01 03:59:00,13.8,2.9,30.23,WSW,237,2.7,5.8,61,0.00,,---,0.00,VWS V14.01,2013-12-01 10:59:00,
2013-12-01 04:04:00,13.6,2.7,30.23,SW,218,3.6,5.8,61,0.00,,---,0.00,VWS V14.01,2013-12-01 11:04:00,
2013-12-01 04:10:00,13.8,2.9,30.23,WSW,240,3.6,3.6,61,0.00,,---,0.00,VWS V14.01,2013-12-01 11:10:00,
2013-12-01 04:15:00,13.6,2.7,30.23,WSW,240,5.4,5.4,61,0.00,,---,0.00,VWS V14.01,2013-12-01 11:15:00,
2013-12-01 04:20:00,13.6,2.7,30.23,WSW,240,0.0,0.0,61,0.00,,---,0.00,VWS V14.01,2013-12-01 11:20:00,
2013-12-01 04:26:00,13.6,2.7,30.23,WSW,241,0.0,0.0,61,0.00,,---,0.00,VWS V14.01,2013-12-01 11:26:00,
2013-12-01 04:31:00,13.5,2.5,30.23,WSW,241,0.0,0.0,61,0.00,,---,0.00,VWS V14.01,2013-12-01 11:31:00,
2013-12-01 04:37:00,13.5,2.5,30.23,WSW,241,0.0,0.0,61,0.00,,---,0.00,VWS V14.01,2013-12-01 11:37:00,
2013-12-01 04:42:00,13.5,2.5,30.23,WSW,241,0.0,0.0,61,0.00,,---,0.00,VWS V14.01,2013-12-01 11:42:00,
2013-12-01 04:48:00,13.5,2.5,30.26,WSW,241,0.0,0.0,61,0.00,,---,0.00,VWS V14.01,2013-12-01 11:48:00,
2013-12-01 04:54:00,13.5,2.5,30.26,WSW,241,0.0,0.0,61,0.00,,---,0.00,VWS V14.01,2013-12-01 11:54:00,
2013-12-01 04:59:00,13.3,2.4,30.26,WSW,241,0.0,0.0,61,0.00,,---,0.00,VWS V14.01,2013-12-01 11:59:00,
2013-12-01 05:05:00,13.3,2.4,30.26,WSW,241,0.0,0.0,61,0.00,,---,0.00,VWS V14.01,2013-12-01 12:05:00,
2013-12-01 05:10:00,13.3,2.4,30.26,WSW,241,0.0,0.0,61,0.00,,---,0.00,VWS V14.01,2013-12-01 12:10:00,
2013-12-01 05:16:00,13.1,2.2,30.26,WSW,241,0.0,0.0,61,0.00,,---,0.00,VWS V14.01,2013-12-01 12:16:00,
2013-12-01 05:21:00,12.9,2.0,30.26,WSW,241,0.0,0.0,61,0.00,,---,0.00,VWS V14.01,2013-12-01 12:21:00,
2013-12-01 05:27:00,12.9,2.0,30.26,WSW,241,0.0,0.0,61,0.00,,---,0.00,VWS V14.01,2013-12-01 12:27:00,
2013-12-01 05:32:00,12.7,1.9,30.26,WSW,241,0.0,0.0,61,0.00,,---,0.00,VWS V14.01,2013-12-01 12:32:00,
2013-12-01 05:38:00,12.7,1.9,30.26,WSW,241,0.0,0.0,61,0.00,,---,0.00,VWS V14.01,2013-12-01 12:38:00,
2013-12-01 05:44:00,12.6,1.7,30.26,WSW,241,0.0,0.0,61,0.00,,---,0.00,VWS V14.01,2013-12-01 12:44:00,
2013-12-01 05:50:00,12.4,1.5,30.26,WSW,241,2.7,4.9,61,0.00,,---,0.00,VWS V14.01,2013-12-01 12:50:00,
2013-12-01 05:55:00,12.2,1.3,30.26,WSW,242,0.0,0.0,61,0.00,,---,0.00,VWS V14.01,2013-12-01 12:55:00,
2013-12-01 06:00:00,12.0,1.2,30.26,WSW,241,0.0,0.0,61,0.00,,---,0.00,VWS V14.01,2013-12-01 13:00:00,
2013-12-01 06:06:00,11.8,1.0,30.26,WSW,239,0.0,0.0,61,0.00,,---,0.00,VWS V14.01,2013-12-01 13:06:00,
2013-12-01 06:11:00,11.7,0.8,30.26,WSW,251,0.0,4.0,61,0.00,,---,0.00,VWS V14.01,2013-12-01 13:11:00,
2013-12-01 06:16:00,11.7,0.8,30.26,West,272,0.0,0.0,61,0.00,,---,0.00,VWS V14.01,2013-12-01 13:16:00,
2013-12-01 06:22:00,11.5,0.6,30.26,SW,226,3.6,6.3,61,0.00,,---,0.00,VWS V14.01,2013-12-01 13:22:00,
2013-12-01 06:27:00,11.5,0.6,30.26,WSW,238,0.0,5.4,61,0.00,,---,0.00,VWS V14.01,2013-12-01 13:27:00,
2013-12-01 06:33:00,11.5,0.6,30.26,WSW,239,0.0,0.0,61,0.00,,---,0.00,VWS V14.01,2013-12-01 13:33:00,
2013-12-01 06:39:00,11.3,0.5,30.26,WSW,242,0.0,3.1,61,0.00,,---,0.00,VWS V14.01,2013-12-01 13:39:00,
2013-12-01 06:44:00,11.3,0.5,30.26,SW,236,5.4,5.8,61,0.00,,---,0.00,VWS V14.01,2013-12-01 13:44:00,
2013-12-01 06:50:00,11.3,0.5,30.26,WSW,241,5.8,5.8,61,0.00,,---,0.00,VWS V14.01,2013-12-01 13:50:00,
2013-12-01 06:55:00,11.3,0.5,30.26,SW,235,8.7,8.7,61,0.00,,---,0.00,VWS V14.01,2013-12-01 13:55:00,
2013-12-01 07:01:00,11.3,0.5,30.26,WSW,237,4.0,8.1,61,0.00,,---,0.00,VWS V14.01,2013-12-01 14:01:00,
2013-12-01 07:07:00,11.5,0.6,30.26,SW,235,0.0,3.1,61,0.00,,---,0.00,VWS V14.01,2013-12-01 14:07:00,
2013-12-01 07:12:00,11.5,0.6,30.26,WSW,253,0.0,0.0,61,0.00,,---,0.00,VWS V14.01,2013-12-01 14:12:00,
2013-12-01 07:18:00,11.7,0.8,30.26,SW,222,0.0,0.0,61,0.00,,---,0.00,VWS V14.01,2013-12-01 14:18:00,
2013-12-01 07:23:00,11.7,0.8,30.26,SW,233,2.2,6.3,61,0.00,,---,0.00,VWS V14.01,2013-12-01 14:23:00,
2013-12-01 07:29:00,11.7,0.8,30.26,SW,231,0.0,0.0,61,0.00,,---,0.00,VWS V14.01,2013-12-01 14:29:00,
2013-12-01 07:35:00,11.8,1.0,30.26,WSW,241,3.1,5.4,61,0.00,,---,0.00,VWS V14.01,2013-12-01 14:35:00,
2013-12-01 07:40:00,11.8,1.0,30.26,WSW,240,2.7,6.3,61,0.00,,---,0.00,VWS V14.01,2013-12-01 14:40:00,
2013-12-01 07:45:00,11.8,1.0,30.26,SW,236,2.7,5.8,61,0.00,,---,0.00,VWS V14.01,2013-12-01 14:45:00,
2013-12-01 07:50:00,12.0,1.2,30.26,SW,234,0.0,2.7,61,0.00,,---,0.00,VWS V14.01,2013-12-01 14:50:00,
2013-12-01 07:56:00,12.0,1.2,30.26,SW,236,4.5,5.8,61,0.00,,---,0.00,VWS V14.01,2013-12-01 14:56:00,
2013-12-01 08:01:00,12.2,1.3,30.26,WSW,239,2.7,4.9,61,0.00,,---,0.00,VWS V14.01,2013-12-01 15:01:00,
2013-12-01 08:07:00,12.2,1.3,30.26,WSW,242,0.0,3.6,61,0.00,,---,0.00,VWS V14.01,2013-12-01 15:07:00,
2013-12-01 08:12:00,12.4,1.5,30.26,SW,230,3.6,3.6,61,0.00,,---,0.00,VWS V14.01,2013-12-01 15:12:00,
2013-12-01 08:18:00,12.6,1.7,30.26,ENE,71,4.5,6.3,61,0.00,,---,0.00,VWS V14.01,2013-12-01 15:18:00,
2013-12-01 08:23:00,12.6,1.7,30.26,ENE,66,0.0,0.0,61,0.00,,---,0.00,VWS V14.01,2013-12-01 15:23:00,
2013-12-01 08:29:00,12.6,1.7,30.26,East,89,0.0,0.0,61,0.00,,---,0.00,VWS V14.01,2013-12-01 15:29:00,
2013-12-01 08:35:00,12.7,1.9,30.26,East,94,0.0,0.0,61,0.00,,---,0.00,VWS V14.01,2013-12-01 15:35:00,
2013-12-01 08:40:00,12.7,1.9,30.26,East,94,0.0,0.0,61,0.00,,---,0.00,VWS V14.01,2013-12-01 15:40:00,
2013-12-01 08:46:00,12.7,1.9,30.26,WSW,237,4.0,4.0,61,0.00,,---,0.00,VWS V14.01,2013-12-01 15:46:00,
2013-12-01 08:52:00,13.1,2.2,30.26,SW,232,0.0,0.0,61,0.00,,---,0.00,VWS V14.01,2013-12-01 15:52:00,
2013-12-01 08:57:00,13.3,2.4,30.26,SW,234,0.0,0.0,61,0.00,,---,0.00,VWS V14.01,2013-12-01 15:57:00,
2013-12-01 09:03:00,13.5,2.5,30.26,SW,236,0.0,0.0,61,0.00,,---,0.00,VWS V14.01,2013-12-01 16:03:00,
2013-12-01 09:08:00,13.5,2.5,30.26,SW,236,0.0,0.0,61,0.00,,---,0.00,VWS V14.01,2013-12-01 16:08:00,
2013-12-01 09:14:00,13.6,2.7,30.26,SW,236,0.0,0.0,61,0.00,,---,0.00,VWS V14.01,2013-12-01 16:14:00,
2013-12-01 09:20:00,13.6,2.7,30.26,SW,236,0.0,0.0,61,0.00,,---,0.00,VWS V14.01,2013-12-01 16:20:00,
2013-12-01 09:25:00,13.8,2.9,30.26,WNW,283,3.6,4.0,61,0.00,,---,0.00,VWS V14.01,2013-12-01 16:25:00,
2013-12-01 09:31:00,14.0,2.3,30.26,ENE,65,4.9,5.4,59,0.00,,---,0.00,VWS V14.01,2013-12-01 16:31:00,
2013-12-01 09:36:00,14.2,2.1,30.26,NE,51,0.0,4.0,58,0.00,,---,0.00,VWS V14.01,2013-12-01 16:36:00,
2013-12-01 09:42:00,14.2,2.1,30.26,NNE,23,0.0,0.0,58,0.00,,---,0.00,VWS V14.01,2013-12-01 16:42:00,
2013-12-01 09:48:00,14.2,2.1,30.26,NE,40,0.0,0.0,58,0.00,,---,0.00,VWS V14.01,2013-12-01 16:48:00,
2013-12-01 09:53:00,14.2,2.1,30.26,ENE,65,0.0,0.0,58,0.00,,---,0.00,VWS V14.01,2013-12-01 16:53:00,
2013-12-01 09:58:00,14.2,2.1,30.26,ENE,65,0.0,0.0,58,0.00,,---,0.00,VWS V14.01,2013-12-01 16:58:00,
2013-12-01 10:03:00,14.2,2.1,30.26,ESE,118,0.0,0.0,58,0.00,,---,0.00,VWS V14.01,2013-12-01 17:03:00,
2013-12-01 10:09:00,14.5,2.5,30.26,NE,35,0.0,5.4,58,0.00,,---,0.00,VWS V14.01,2013-12-01 17:09:00,
2013-12-01 10:14:00,14.7,2.6,30.26,East,82,0.0,0.0,58,0.00,,---,0.00,VWS V14.01,2013-12-01 17:14:00,
2013-12-01 10:20:00,15.1,3.0,30.26,NE,49,0.0,0.0,58,0.00,,---,0.00,VWS V14.01,2013-12-01 17:20:00,
2013-12-01 10:25:00,15.3,3.2,30.26,East,80,0.0,0.0,58,0.00,,---,0.00,VWS V14.01,2013-12-01 17:25:00,
2013-12-01 10:30:00,15.4,3.3,30.26,ENE,63,0.0,3.6,58,0.00,,---,0.00,VWS V14.01,2013-12-01 17:30:00,
2013-12-01 10:35:00,16.0,3.8,30.26,East,80,0.0,4.5,58,0.00,,---,0.00,VWS V14.01,2013-12-01 17:35:00,
2013-12-01 10:41:00,16.5,4.3,30.26,SE,130,0.0,0.0,58,0.00,,---,0.00,VWS V14.01,2013-12-01 17:41:00,
2013-12-01 10:47:00,17.4,5.2,30.26,WSW,237,0.0,0.0,58,0.00,,---,0.00,VWS V14.01,2013-12-01 17:47:00,
2013-12-01 10:53:00,18.1,5.5,30.26,WSW,237,0.0,0.0,57,0.00,,---,0.00,VWS V14.01,2013-12-01 17:53:00,
2013-12-01 10:59:00,18.5,5.8,30.26,WSW,237,0.0,0.0,57,0.00,,---,0.00,VWS V14.01,2013-12-01 17:59:00,
2013-12-01 11:04:00,19.4,6.7,30.26,South,180,0.0,0.0,57,0.00,,---,0.00,VWS V14.01,2013-12-01 18:04:00,
2013-12-01 11:09:00,20.1,6.9,30.26,SSE,157,0.0,0.0,56,0.00,,---,0.00,VWS V14.01,2013-12-01 18:09:00,
2013-12-01 11:14:00,20.5,7.3,30.26,SE,127,0.0,0.0,56,0.00,,---,0.00,VWS V14.01,2013-12-01 18:14:00,
2013-12-01 11:20:00,20.8,7.2,30.23,NE,42,0.0,0.0,55,0.00,,---,0.00,VWS V14.01,2013-12-01 18:20:00,
2013-12-01 11:25:00,21.0,7.4,30.23,NNE,15,0.0,0.0,55,0.00,,---,0.00,VWS V14.01,2013-12-01 18:25:00,
2013-12-01 11:30:00,21.6,7.9,30.23,North,353,0.0,0.0,55,0.00,,---,0.00,VWS V14.01,2013-12-01 18:30:00,
2013-12-01 11:35:00,22.1,8.4,30.23,North,357,0.0,0.0,55,0.00,,---,0.00,VWS V14.01,2013-12-01 18:35:00,
2013-12-01 11:42:00,22.8,9.1,30.23,East,91,0.0,7.6,55,0.00,,---,0.00,VWS V14.01,2013-12-01 18:42:00,
2013-12-01 11:48:00,24.1,9.9,30.23,West,262,0.0,0.0,54,0.00,,---,0.00,VWS V14.01,2013-12-01 18:48:00,
2013-12-01 11:53:00,25.7,10.1,30.23,SE,131,5.4,10.5,51,0.00,,---,0.00,VWS V14.01,2013-12-01 18:53:00,
2013-12-01 11:58:00,28.0,10.4,30.23,SE,146,8.3,8.3,47,0.00,,---,0.00,VWS V14.01,2013-12-01 18:58:00,
2013-12-01 12:04:00,29.5,9.2,30.23,NE,44,5.8,8.3,42,0.00,,---,0.00,VWS V14.01,2013-12-01 19:04:00,
2013-12-01 12:09:00,30.4,9.5,30.23,SSE,157,4.0,8.3,41,0.00,,---,0.00,VWS V14.01,2013-12-01 19:09:00,
2013-12-01 12:16:00,31.1,9.6,30.20,South,191,3.6,10.1,40,0.00,,---,0.00,VWS V14.01,2013-12-01 19:16:00,
2013-12-01 12:21:00,32.5,9.8,30.20,SW,236,8.7,11.0,38,0.00,,---,0.00,VWS V14.01,2013-12-01 19:21:00,
2013-12-01 12:26:00,33.3,7.9,30.20,West,279,3.6,8.7,34,0.00,,---,0.00,VWS V14.01,2013-12-01 19:26:00,
2013-12-01 12:32:00,33.8,8.4,30.20,SSW,206,4.9,8.1,34,0.00,,---,0.00,VWS V14.01,2013-12-01 19:32:00,
2013-12-01 12:37:00,34.2,8.1,30.20,NE,48,3.1,8.7,33,0.00,,---,0.00,VWS V14.01,2013-12-01 19:37:00,
2013-12-01 12:38:00,34.3,8.9,30.20,WSW,257,0.0,6.7,34,0.00,,---,0.00,VWS V14.01,2013-12-01 19:38:00,
2013-12-01 12:44:00,34.9,8.0,30.20,South,186,5.4,12.3,32,0.00,,---,0.00,VWS V14.01,2013-12-01 19:44:00,
2013-12-01 12:51:00,35.6,8.7,30.20,SSE,156,0.0,9.6,32,0.00,,---,0.00,VWS V14.01,2013-12-01 19:51:00,
2013-12-01 12:56:00,35.4,9.9,30.20,SSW,194,2.7,7.2,34,0.00,,---,0.00,VWS V14.01,2013-12-01 19:56:00,
2013-12-01 13:01:00,35.6,9.4,30.20,NNW,332,3.1,5.4,33,0.00,,---,0.00,VWS V14.01,2013-12-01 20:01:00,
2013-12-01 13:06:00,35.8,8.8,30.20,SW,231,3.6,5.4,32,0.00,,---,0.00,VWS V14.01,2013-12-01 20:06:00,
2013-12-01 13:11:00,36.1,9.1,30.20,ENE,74,4.0,9.2,32,0.00,,---,0.00,VWS V14.01,2013-12-01 20:11:00,
2013-12-01 13:17:00,36.1,9.1,30.20,NE,56,4.0,7.6,32,0.00,,---,0.00,VWS V14.01,2013-12-01 20:17:00,
2013-12-01 13:22:00,36.3,10.0,30.20,WSW,246,6.3,8.7,33,0.00,,---,0.00,VWS V14.01,2013-12-01 20:22:00,
2013-12-01 13:28:00,36.5,9.5,30.20,North,11,6.3,9.6,32,0.00,,---,0.00,VWS V14.01,2013-12-01 20:28:00,
2013-12-01 13:33:00,36.7,9.6,30.20,West,278,5.8,7.6,32,0.00,,---,0.00,VWS V14.01,2013-12-01 20:33:00,
2013-12-01 13:39:00,36.9,9.8,30.20,WSW,239,3.1,4.0,32,0.00,,---,0.00,VWS V14.01,2013-12-01 20:39:00,
2013-12-01 13:44:00,37.0,9.2,30.20,SSW,194,0.0,5.8,31,0.00,,---,0.00,VWS V14.01,2013-12-01 20:44:00,
2013-12-01 13:50:00,37.0,9.9,30.17,South,176,0.0,6.3,32,0.00,,---,0.00,VWS V14.01,2013-12-01 20:50:00,
2013-12-01 13:56:00,37.0,9.9,30.17,NNW,348,0.0,4.9,32,0.00,,---,0.00,VWS V14.01,2013-12-01 20:56:00,
2013-12-01 14:01:00,36.9,10.5,30.17,SSW,212,6.3,8.7,33,0.00,,---,0.00,VWS V14.01,2013-12-01 21:01:00,
2013-12-01 14:07:00,37.0,11.3,30.17,SW,230,4.0,8.1,34,0.00,,---,0.00,VWS V14.01,2013-12-01 21:07:00,
2013-12-01 14:12:00,37.2,10.1,30.17,SSW,211,0.0,10.1,32,0.00,,---,0.00,VWS V14.01,2013-12-01 21:12:00,
2013-12-01 14:17:00,37.4,10.2,30.17,WNW,288,7.6,8.3,32,0.00,,---,0.00,VWS V14.01,2013-12-01 21:17:00,
2013-12-01 14:22:00,37.4,9.5,30.17,West,268,3.6,8.3,31,0.00,,---,0.00,VWS V14.01,2013-12-01 21:22:00,
2013-12-01 14:28:00,37.6,11.1,30.17,SSW,194,0.0,0.0,33,0.00,,---,0.00,VWS V14.01,2013-12-01 21:28:00,
2013-12-01 14:33:00,37.8,10.6,30.17,SW,225,3.1,8.7,32,0.00,,---,0.00,VWS V14.01,2013-12-01 21:33:00,
2013-12-01 14:39:00,37.9,10.0,30.17,West,276,3.6,6.3,31,0.00,,---,0.00,VWS V14.01,2013-12-01 21:39:00,
2013-12-01 14:45:00,37.9,10.7,30.20,West,268,7.6,7.6,32,0.00,,---,0.00,VWS V14.01,2013-12-01 21:45:00,
2013-12-01 14:51:00,37.9,11.4,30.20,NE,45,5.8,8.7,33,0.00,,---,0.00,VWS V14.01,2013-12-01 21:51:00,
2013-12-01 14:57:00,38.1,10.2,30.20,North,357,6.3,8.1,31,0.00,,---,0.00,VWS V14.01,2013-12-01 21:57:00,
2013-12-01 15:03:00,38.3,11.0,30.20,West,261,5.8,8.7,32,0.00,,---,0.00,VWS V14.01,2013-12-01 22:03:00,
2013-12-01 15:08:00,38.3,11.0,30.20,SW,231,3.6,8.1,32,0.00,,---,0.00,VWS V14.01,2013-12-01 22:08:00,
2013-12-01 15:14:00,38.3,10.3,30.20,WSW,245,6.3,6.3,31,0.00,,---,0.00,VWS V14.01,2013-12-01 22:14:00,
2013-12-01 15:19:00,38.5,11.2,30.20,West,261,8.1,8.1,32,0.00,,---,0.00,VWS V14.01,2013-12-01 22:19:00,
2013-12-01 15:25:00,38.5,10.5,30.20,NNW,333,3.1,8.7,31,0.00,,---,0.00,VWS V14.01,2013-12-01 22:25:00,
2013-12-01 15:31:00,38.5,10.5,30.20,West,262,10.1,10.1,31,0.00,,---,0.00,VWS V14.01,2013-12-01 22:31:00,
2013-12-01 15:36:00,38.7,11.4,30.20,WNW,292,3.1,6.3,32,0.00,,---,0.00,VWS V14.01,2013-12-01 22:36:00,
2013-12-01 15:42:00,38.5,9.8,30.20,SW,222,4.0,6.3,30,0.00,,---,0.00,VWS V14.01,2013-12-01 22:42:00,
2013-12-01 15:48:00,38.3,10.3,30.20,WNW,300,2.7,5.8,31,0.00,,---,0.00,VWS V14.01,2013-12-01 22:48:00,
2013-12-01 15:53:00,37.9,10.0,30.20,WSW,253,4.0,6.3,31,0.00,,---,0.00,VWS V14.01,2013-12-01 22:53:00,
2013-12-01 15:59:00,37.6,10.4,30.20,West,259,0.0,3.1,32,0.00,,---,0.00,VWS V14.01,2013-12-01 22:59:00,
2013-12-01 16:04:00,37.2,9.4,30.20,South,183,4.9,5.8,31,0.00,,---,0.00,VWS V14.01,2013-12-01 23:04:00,
2013-12-01 16:11:00,36.9,9.8,30.20,WSW,254,0.0,4.0,32,0.00,,---,0.00,VWS V14.01,2013-12-01 23:11:00,
2013-12-01 16:16:00,36.9,8.3,30.20,South,177,7.6,8.1,30,0.00,,---,0.00,VWS V14.01,2013-12-01 23:16:00,
2013-12-01 16:22:00,36.9,8.3,30.20,SSE,153,5.4,6.3,30,0.00,,---,0.00,VWS V14.01,2013-12-01 23:22:00,
2013-12-01 16:27:00,36.9,8.3,30.20,SW,216,0.0,8.1,30,0.00,,---,0.00,VWS V14.01,2013-12-01 23:27:00,
2013-12-01 16:33:00,36.7,8.2,30.20,SSE,156,8.3,8.3,30,0.00,,---,0.00,VWS V14.01,2013-12-01 23:33:00,
2013-12-01 16:39:00,36.7,8.2,30.20,WSW,240,3.6,8.1,30,0.00,,---,0.00,VWS V14.01,2013-12-01 23:39:00,
2013-12-01 16:45:00,36.3,8.6,30.20,WSW,253,0.0,3.6,31,0.00,,---,0.00,VWS V14.01,2013-12-01 23:45:00,
2013-12-01 16:50:00,36.1,7.7,30.20,SW,230,4.9,8.3,30,0.00,,---,0.00,VWS V14.01,2013-12-01 23:50:00,
2013-12-01 16:56:00,36.0,8.3,30.20,West,265,3.1,5.4,31,0.00,,---,0.00,VWS V14.01,2013-12-01 23:56:00,
2013-12-01 17:01:00,35.8,8.1,30.20,WSW,245,5.4,6.3,31,0.00,,---,0.00,VWS V14.01,2013-12-02 00:01:00,
2013-12-01 17:07:00,35.4,7.8,30.20,WSW,241,2.7,4.0,31,0.00,,---,0.00,VWS V14.01,2013-12-02 00:07:00,
2013-12-01 17:12:00,35.4,8.5,30.20,South,179,2.7,7.2,32,0.00,,---,0.00,VWS V14.01,2013-12-02 00:12:00,
2013-12-01 17:18:00,35.4,7.8,30.20,WSW,247,4.0,4.0,31,0.00,,---,0.00,VWS V14.01,2013-12-02 00:18:00,
2013-12-01 17:24:00,35.2,7.7,30.20,SSE,164,5.4,5.8,31,0.00,,---,0.00,VWS V14.01,2013-12-02 00:24:00,
2013-12-01 17:29:00,35.4,7.8,30.20,South,185,0.0,4.0,31,0.00,,---,0.00,VWS V14.01,2013-12-02 00:29:00,
2013-12-01 17:34:00,35.2,7.7,30.20,SSW,213,3.1,6.3,31,0.00,,---,0.00,VWS V14.01,2013-12-02 00:34:00,
2013-12-01 17:39:00,35.1,7.5,30.20,West,268,0.0,0.0,31,0.00,,---,0.00,VWS V14.01,2013-12-02 00:39:00,
2013-12-01 17:45:00,34.9,7.3,30.20,SSW,205,0.0,0.0,31,0.00,,---,0.00,VWS V14.01,2013-12-02 00:45:00,
2013-12-01 17:50:00,34.9,7.3,30.20,South,175,2.7,4.0,31,0.00,,---,0.00,VWS V14.01,2013-12-02 00:50:00,
2013-12-01 17:56:00,34.7,7.2,30.20,SSE,161,3.6,4.9,31,0.00,,---,0.00,VWS V14.01,2013-12-02 00:56:00,
2013-12-01 18:02:00,34.5,7.0,30.20,SE,130,0.0,0.0,31,0.00,,---,0.00,VWS V14.01,2013-12-02 01:02:00,
2013-12-01 18:07:00,34.9,7.3,30.20,East,90,0.0,0.0,31,0.00,,---,0.00,VWS V14.01,2013-12-02 01:07:00,
2013-12-01 18:12:00,34.9,6.6,30.20,SE,141,7.6,8.3,30,0.00,,---,0.00,VWS V14.01,2013-12-02 01:12:00,
2013-12-01 18:17:00,35.1,6.8,30.20,SE,126,8.1,8.1,30,0.00,,---,0.00,VWS V14.01,2013-12-02 01:17:00,
2013-12-01 18:23:00,34.9,6.6,30.20,South,185,5.8,5.8,30,0.00,,---,0.00,VWS V14.01,2013-12-02 01:23:00,
2013-12-01 18:28:00,35.1,6.8,30.20,SE,145,5.8,5.8,30,0.00,,---,0.00,VWS V14.01,2013-12-02 01:28:00,
2013-12-01 18:34:00,34.9,6.6,30.20,South,172,5.8,5.8,30,0.00,,---,0.00,VWS V14.01,2013-12-02 01:34:00,
2013-12-01 18:39:00,34.9,6.6,30.20,South,176,5.8,8.7,30,0.00,,---,0.00,VWS V14.01,2013-12-02 01:39:00,
2013-12-01 18:45:00,35.1,6.8,30.20,SSE,162,2.7,4.9,30,0.00,,---,0.00,VWS V14.01,2013-12-02 01:45:00,
2013-12-01 18:50:00,34.9,6.6,30.20,SSE,165,4.9,4.9,30,0.00,,---,0.00,VWS V14.01,2013-12-02 01:50:00,
2013-12-01 18:55:00,35.2,6.9,30.20,South,172,5.4,6.3,30,0.00,,---,0.00,VWS V14.01,2013-12-02 01:55:00,
2013-12-01 19:00:00,35.4,7.1,30.17,SSE,155,6.3,11.0,30,0.00,,---,0.00,VWS V14.01,2013-12-02 02:00:00,
2013-12-01 19:06:00,35.6,7.2,30.17,SSE,149,4.0,8.1,30,0.00,,---,0.00,VWS V14.01,2013-12-02 02:06:00,
2013-12-01 19:11:00,35.4,7.1,30.17,South,180,4.0,12.8,30,0.00,,---,0.00,VWS V14.01,2013-12-02 02:11:00,
2013-12-01 19:16:00,35.2,6.9,30.17,SSE,166,5.4,6.3,30,0.00,,---,0.00,VWS V14.01,2013-12-02 02:16:00,
2013-12-01 19:21:00,35.4,7.1,30.17,South,182,2.7,6.3,30,0.00,,---,0.00,VWS V14.01,2013-12-02 02:21:00,
2013-12-01 19:27:00,35.4,7.1,30.17,SSW,210,4.0,5.4,30,0.00,,---,0.00,VWS V14.01,2013-12-02 02:27:00,
2013-12-01 19:32:00,35.2,6.9,30.17,WSW,240,2.2,7.6,30,0.00,,---,0.00,VWS V14.01,2013-12-02 02:32:00,
2013-12-01 19:38:00,35.2,6.9,30.17,WSW,246,3.1,8.3,30,0.00,,---,0.00,VWS V14.01,2013-12-02 02:38:00,
2013-12-01 19:44:00,35.2,6.9,30.17,SW,230,3.6,5.4,30,0.00,,---,0.00,VWS V14.01,2013-12-02 02:44:00,
2013-12-01 19:50:00,35.1,7.5,30.17,SSE,150,4.0,4.9,31,0.00,,---,0.00,VWS V14.01,2013-12-02 02:50:00,
2013-12-01 19:56:00,34.3,6.9,30.17,SSW,196,0.0,0.0,31,0.00,,---,0.00,VWS V14.01,2013-12-02 02:56:00,
2013-12-01 20:02:00,34.2,6.7,30.17,South,169,7.6,10.1,31,0.00,,---,0.00,VWS V14.01,2013-12-02 03:02:00,
2013-12-01 20:07:00,34.5,7.0,30.17,SSE,151,3.6,5.4,31,0.00,,---,0.00,VWS V14.01,2013-12-02 03:07:00,
2013-12-01 20:13:00,34.9,7.3,30.17,SSE,163,6.7,6.7,31,0.00,,---,0.00,VWS V14.01,2013-12-02 03:13:00,
2013-12-01 20:18:00,35.1,7.5,30.20,WNW,286,0.0,4.0,31,0.00,,---,0.00,VWS V14.01,2013-12-02 03:18:00,
2013-12-01 20:24:00,34.5,7.7,30.20,ENE,72,6.3,8.3,32,0.00,,---,0.00,VWS V14.01,2013-12-02 03:24:00,
2013-12-01 20:30:00,34.0,9.9,30.20,NE,44,2.2,5.4,36,0.00,,---,0.00,VWS V14.01,2013-12-02 03:30:00,
2013-12-01 20:36:00,33.4,10.0,30.20,East,97,0.0,0.0,37,0.00,,---,0.00,VWS V14.01,2013-12-02 03:36:00,
2013-12-01 20:41:00,32.9,10.1,30.20,South,175,0.0,0.0,38,0.00,,---,0.00,VWS V14.01,2013-12-02 03:41:00,
2013-12-01 20:46:00,32.2,10.0,30.20,West,280,5.8,6.3,39,0.00,,---,0.00,VWS V14.01,2013-12-02 03:46:00,
2013-12-01 20:52:00,31.5,9.9,30.20,WSW,247,0.0,3.1,40,0.00,,---,0.00,VWS V14.01,2013-12-02 03:52:00,
2013-12-01 20:57:00,31.1,9.6,30.20,SW,217,0.0,0.0,40,0.00,,---,0.00,VWS V14.01,2013-12-02 03:57:00,
2013-12-01 21:03:00,30.7,8.7,30.17,SSE,156,2.7,5.8,39,0.00,,---,0.00,VWS V14.01,2013-12-02 04:03:00,
2013-12-01 21:08:00,30.7,9.3,30.17,SE,125,4.5,4.5,40,0.00,,---,0.00,VWS V14.01,2013-12-02 04:08:00,
2013-12-01 21:14:00,30.6,9.1,30.17,SSE,155,3.6,3.6,40,0.00,,---,0.00,VWS V14.01,2013-12-02 04:14:00,
2013-12-01 21:19:00,30.6,9.1,30.17,ESE,112,3.1,7.6,40,0.00,,---,0.00,VWS V14.01,2013-12-02 04:19:00,
2013-12-01 21:25:00,30.6,9.1,30.17,NE,56,4.9,6.3,40,0.00,,---,0.00,VWS V14.01,2013-12-02 04:25:00,
2013-12-01 21:31:00,30.4,9.5,30.17,East,97,0.0,0.0,41,0.00,,---,0.00,VWS V14.01,2013-12-02 04:31:00,
2013-12-01 21:36:00,29.8,9.0,30.17,South,170,0.0,3.6,41,0.00,,---,0.00,VWS V14.01,2013-12-02 04:36:00,
2013-12-01 21:41:00,29.5,9.2,30.17,East,82,5.4,5.4,42,0.00,,---,0.00,VWS V14.01,2013-12-02 04:41:00,
2013-12-01 21:46:00,29.1,8.9,30.17,East,86,4.0,5.8,42,0.00,,---,0.00,VWS V14.01,2013-12-02 04:46:00,
2013-12-01 21:52:00,28.8,8.0,30.17,SSE,152,0.0,0.0,41,0.00,,---,0.00,VWS V14.01,2013-12-02 04:52:00,
2013-12-01 21:57:00,28.8,8.6,30.17,SSE,157,0.0,0.0,42,0.00,,---,0.00,VWS V14.01,2013-12-02 04:57:00,
2013-12-01 22:01:00,28.8,8.6,30.17,South,179,0.0,0.0,42,0.00,,---,0.00,VWS V14.01,2013-12-02 05:01:00,
2013-12-01 22:02:00,28.8,8.6,30.17,South,179,0.0,0.0,42,0.00,,---,0.00,VWS V14.01,2013-12-02 05:02:00,
2013-12-01 22:03:00,28.8,8.6,30.17,South,179,0.0,0.0,42,0.00,,---,0.00,VWS V14.01,2013-12-02 05:03:00,
2013-12-01 22:05:00,28.8,8.6,30.17,WSW,254,0.0,0.0,42,0.00,,---,0.00,VWS V14.01,2013-12-02 05:05:00,
2013-12-01 22:10:00,28.9,9.3,30.17,West,266,0.0,0.0,43,0.00,,---,0.00,VWS V14.01,2013-12-02 05:10:00,
2013-12-01 22:16:00,28.9,9.8,30.17,East,93,0.0,0.0,44,0.00,,---,0.00,VWS V14.01,2013-12-02 05:16:00,
2013-12-01 22:21:00,28.8,9.1,30.17,NE,44,3.1,9.6,43,0.00,,---,0.00,VWS V14.01,2013-12-02 05:21:00,
2013-12-01 22:26:00,28.8,9.6,30.17,ENE,61,5.8,5.8,44,0.00,,---,0.00,VWS V14.01,2013-12-02 05:26:00,
2013-12-01 22:31:00,28.8,9.6,30.17,NW,313,3.6,5.4,44,0.00,,---,0.00,VWS V14.01,2013-12-02 05:31:00,
2013-12-01 22:37:00,28.6,9.4,30.17,SW,218,0.0,3.6,44,0.00,,---,0.00,VWS V14.01,2013-12-02 05:37:00,
2013-12-01 22:42:00,28.4,9.8,30.17,WNW,283,2.7,8.1,45,0.00,,---,0.00,VWS V14.01,2013-12-02 05:42:00,
2013-12-01 22:47:00,28.2,9.6,30.17,SSE,162,0.0,0.0,45,0.00,,---,0.00,VWS V14.01,2013-12-02 05:47:00,
2013-12-01 22:52:00,28.0,9.4,30.17,WSW,244,0.0,0.0,45,0.00,,---,0.00,VWS V14.01,2013-12-02 05:52:00,
2013-12-01 22:58:00,27.9,10.3,30.17,WNW,302,0.0,0.0,47,0.00,,---,0.00,VWS V14.01,2013-12-02 05:58:00,
2013-12-01 23:04:00,27.9,9.8,30.17,NE,39,0.0,5.4,46,0.00,,---,0.00,VWS V14.01,2013-12-02 06:04:00,
2013-12-01 23:10:00,27.9,10.3,30.17,NNW,344,0.0,0.0,47,0.00,,---,0.00,VWS V14.01,2013-12-02 06:10:00,
2013-12-01 23:15:00,27.7,10.1,30.17,NW,319,0.0,0.0,47,0.00,,---,0.00,VWS V14.01,2013-12-02 06:15:00,
2013-12-01 23:20:00,27.7,9.6,30.17,SE,132,0.0,0.0,46,0.00,,---,0.00,VWS V14.01,2013-12-02 06:20:00,
2013-12-01 23:26:00,27.7,9.6,30.17,SSE,153,0.0,0.0,46,0.00,,---,0.00,VWS V14.01,2013-12-02 06:26:00,
2013-12-01 23:32:00,27.7,10.1,30.17,West,275,0.0,0.0,47,0.00,,---,0.00,VWS V14.01,2013-12-02 06:32:00,
2013-12-01 23:37:00,27.9,9.8,30.17,SSW,197,0.0,4.0,46,0.00,,---,0.00,VWS V14.01,2013-12-02 06:37:00,
2013-12-01 23:43:00,27.9,10.7,30.17,South,183,3.1,3.1,48,0.00,,---,0.00,VWS V14.01,2013-12-02 06:43:00,
2013-12-01 23:48:00,27.9,10.3,30.17,SE,127,5.4,5.4,47,0.00,,---,0.00,VWS V14.01,2013-12-02 06:48:00,
2013-12-01 23:54:00,28.6,11.4,30.17,SE,136,0.0,5.8,48,0.00,,---,0.00,VWS V14.01,2013-12-02 06:54:00,
2013-12-01 23:59:00,28.8,11.6,30.17,SE,143,8.1,8.1,48,0.00,,---,0.00,VWS V14.01,2013-12-02 06:59:00,